sensor_id;sensor_type;location;lat;lon;timestamp;pressure;altitude;pressure_sealevel;temperature;humidity
39105;BME280;46464;51.154;13.812;2022-07-23T00:00:06;99413.84;;;17.62;79.35
39105;BME280;46464;51.154;13.812;2022-07-23T00:02:34;99421.75;;;17.41;79.98
39105;BME280;46464;51.154;13.812;2022-07-23T00:05:01;99424.94;;;17.35;80.12
39105;BME280;46464;51.154;13.812;2022-07-23T00:07:28;99429.84;;;17.30;79.81
39105;BME280;46464;51.154;13.812;2022-07-23T00:09:54;99423.66;;;17.27;79.63
39105;BME280;46464;51.154;13.812;2022-07-23T00:12:21;99421.91;;;17.26;79.93
39105;BME280;46464;51.154;13.812;2022-07-23T00:14:47;99412.06;;;17.25;80.24
39105;BME280;46464;51.154;13.812;2022-07-23T00:17:14;99411.81;;;17.29;80.89
39105;BME280;46464;51.154;13.812;2022-07-23T00:19:40;99409.09;;;17.29;80.49
39105;BME280;46464;51.154;13.812;2022-07-23T00:22:07;99414.31;;;17.32;80.72
39105;BME280;46464;51.154;13.812;2022-07-23T00:24:33;99411.59;;;17.32;80.76
39105;BME280;46464;51.154;13.812;2022-07-23T00:27:00;99410.72;;;17.31;80.89
39105;BME280;46464;51.154;13.812;2022-07-23T00:29:26;99424.41;;;17.30;81.29
39105;BME280;46464;51.154;13.812;2022-07-23T00:31:52;99417.38;;;17.27;81.03
39105;BME280;46464;51.154;13.812;2022-07-23T00:34:19;99410.31;;;17.24;81.74
39105;BME280;46464;51.154;13.812;2022-07-23T00:36:45;99410.53;;;17.21;82.32
39105;BME280;46464;51.154;13.812;2022-07-23T00:39:12;99415.88;;;17.23;82.37
39105;BME280;46464;51.154;13.812;2022-07-23T00:41:39;99404.88;;;17.24;82.30
39105;BME280;46464;51.154;13.812;2022-07-23T00:44:15;99409.34;;;17.25;82.53
39105;BME280;46464;51.154;13.812;2022-07-23T00:46:52;99414.00;;;17.23;83.13
39105;BME280;46464;51.154;13.812;2022-07-23T00:49:21;99404.88;;;17.24;82.97
39105;BME280;46464;51.154;13.812;2022-07-23T00:51:48;99409.56;;;17.22;83.39
39105;BME280;46464;51.154;13.812;2022-07-23T00:54:16;99414.22;;;17.20;83.88
39105;BME280;46464;51.154;13.812;2022-07-23T00:56:45;99408.78;;;17.20;83.78
39105;BME280;46464;51.154;13.812;2022-07-23T00:59:13;99412.72;;;17.16;84.00
39105;BME280;46464;51.154;13.812;2022-07-23T01:01:40;99406.31;;;17.17;83.63
39105;BME280;46464;51.154;13.812;2022-07-23T01:04:07;99404.56;;;17.16;84.14
39105;BME280;46464;51.154;13.812;2022-07-23T01:06:34;99403.47;;;17.19;84.74
39105;BME280;46464;51.154;13.812;2022-07-23T01:09:03;99397.06;;;17.20;84.54
39105;BME280;46464;51.154;13.812;2022-07-23T01:11:32;99395.97;;;17.22;84.62
39105;BME280;46464;51.154;13.812;2022-07-23T01:13:59;99391.34;;;17.12;84.70
39105;BME280;46464;51.154;13.812;2022-07-23T01:16:25;99395.28;;;17.07;84.78
39105;BME280;46464;51.154;13.812;2022-07-23T01:18:52;99391.72;;;17.07;84.65
39105;BME280;46464;51.154;13.812;2022-07-23T01:21:18;99382.03;;;17.03;85.16
39105;BME280;46464;51.154;13.812;2022-07-23T01:23:45;99378.59;;;17.01;85.30
39105;BME280;46464;51.154;13.812;2022-07-23T01:26:11;99372.91;;;17.04;85.14
39105;BME280;46464;51.154;13.812;2022-07-23T01:28:40;99366.63;;;17.03;86.48
39105;BME280;46464;51.154;13.812;2022-07-23T01:31:06;99371.72;;;17.08;86.62
39105;BME280;46464;51.154;13.812;2022-07-23T01:33:33;99369.53;;;17.13;86.62
39105;BME280;46464;51.154;13.812;2022-07-23T01:35:59;99356.59;;;17.17;87.26
39105;BME280;46464;51.154;13.812;2022-07-23T01:38:26;99353.88;;;17.17;87.66
39105;BME280;46464;51.154;13.812;2022-07-23T01:40:52;99345.09;;;17.13;87.99
39105;BME280;46464;51.154;13.812;2022-07-23T01:43:21;99339.56;;;17.15;87.37
39105;BME280;46464;51.154;13.812;2022-07-23T01:45:50;99332.38;;;17.14;87.02
39105;BME280;46464;51.154;13.812;2022-07-23T01:48:17;99338.78;;;17.13;87.42
39105;BME280;46464;51.154;13.812;2022-07-23T01:50:46;99332.97;;;17.06;87.80
39105;BME280;46464;51.154;13.812;2022-07-23T01:53:13;99325.94;;;17.03;87.43
39105;BME280;46464;51.154;13.812;2022-07-23T01:55:40;99327.13;;;16.99;87.67
39105;BME280;46464;51.154;13.812;2022-07-23T01:58:07;99325.19;;;16.88;88.23
39105;BME280;46464;51.154;13.812;2022-07-23T02:00:33;99310.88;;;16.86;87.69
39105;BME280;46464;51.154;13.812;2022-07-23T02:03:00;99311.19;;;16.82;87.59
39105;BME280;46464;51.154;13.812;2022-07-23T02:05:27;99315.59;;;16.71;88.54
39105;BME280;46464;51.154;13.812;2022-07-23T02:07:58;99314.19;;;16.66;89.11
39105;BME280;46464;51.154;13.812;2022-07-23T02:10:26;99320.38;;;16.68;89.19
39105;BME280;46464;51.154;13.812;2022-07-23T02:12:53;99323.59;;;16.73;89.33
39105;BME280;46464;51.154;13.812;2022-07-23T02:15:19;99313.28;;;16.78;89.31
39105;BME280;46464;51.154;13.812;2022-07-23T02:17:46;99312.81;;;16.84;89.46
39105;BME280;46464;51.154;13.812;2022-07-23T02:20:12;99313.25;;;16.91;89.28
39105;BME280;46464;51.154;13.812;2022-07-23T02:22:39;99310.84;;;16.99;89.32
39105;BME280;46464;51.154;13.812;2022-07-23T02:25:07;99311.38;;;17.04;89.14
39105;BME280;46464;51.154;13.812;2022-07-23T02:27:34;99309.19;;;17.09;88.94
39105;BME280;46464;51.154;13.812;2022-07-23T02:30:00;99297.22;;;17.12;89.89
39105;BME280;46464;51.154;13.812;2022-07-23T02:32:27;99292.78;;;17.11;89.96
39105;BME280;46464;51.154;13.812;2022-07-23T02:34:53;99303.97;;;17.06;89.44
39105;BME280;46464;51.154;13.812;2022-07-23T02:37:20;99304.94;;;17.05;89.32
39105;BME280;46464;51.154;13.812;2022-07-23T02:39:47;99300.75;;;17.01;89.37
39105;BME280;46464;51.154;13.812;2022-07-23T02:42:15;99311.84;;;16.98;89.48
39105;BME280;46464;51.154;13.812;2022-07-23T02:44:42;99311.22;;;16.94;89.76
39105;BME280;46464;51.154;13.812;2022-07-23T02:47:08;99295.91;;;16.93;90.33
39105;BME280;46464;51.154;13.812;2022-07-23T02:49:35;99290.47;;;16.93;89.99
39105;BME280;46464;51.154;13.812;2022-07-23T02:52:01;99294.81;;;16.96;90.25
39105;BME280;46464;51.154;13.812;2022-07-23T02:54:28;99293.31;;;16.92;90.81
39105;BME280;46464;51.154;13.812;2022-07-23T02:56:55;99298.75;;;16.92;91.26
39105;BME280;46464;51.154;13.812;2022-07-23T02:59:21;99288.94;;;16.89;90.92
39105;BME280;46464;51.154;13.812;2022-07-23T03:01:48;99277.09;;;16.90;90.34
39105;BME280;46464;51.154;13.812;2022-07-23T03:04:14;99284.28;;;16.91;90.43
39105;BME280;46464;51.154;13.812;2022-07-23T03:06:41;99279.16;;;16.87;91.38
39105;BME280;46464;51.154;13.812;2022-07-23T03:09:07;99268.44;;;16.85;91.12
39105;BME280;46464;51.154;13.812;2022-07-23T03:11:34;99280.16;;;16.86;91.05
39105;BME280;46464;51.154;13.812;2022-07-23T03:14:00;99282.00;;;16.85;90.80
39105;BME280;46464;51.154;13.812;2022-07-23T03:16:26;99281.03;;;16.86;90.79
39105;BME280;46464;51.154;13.812;2022-07-23T03:18:53;99282.00;;;16.85;90.88
39105;BME280;46464;51.154;13.812;2022-07-23T03:21:19;99281.88;;;16.87;90.70
39105;BME280;46464;51.154;13.812;2022-07-23T03:23:46;99279.81;;;16.90;90.31
39105;BME280;46464;51.154;13.812;2022-07-23T03:26:13;99280.59;;;16.92;90.95
39105;BME280;46464;51.154;13.812;2022-07-23T03:28:39;99284.81;;;16.97;90.80
39105;BME280;46464;51.154;13.812;2022-07-23T03:31:06;99268.31;;;17.00;90.81
39105;BME280;46464;51.154;13.812;2022-07-23T03:33:32;99272.84;;;16.99;91.20
39105;BME280;46464;51.154;13.812;2022-07-23T03:35:59;99265.81;;;16.97;91.20
39105;BME280;46464;51.154;13.812;2022-07-23T03:38:25;99269.53;;;16.96;91.19
39105;BME280;46464;51.154;13.812;2022-07-23T03:40:52;99258.41;;;16.99;91.11
39105;BME280;46464;51.154;13.812;2022-07-23T03:43:18;99266.22;;;17.03;90.99
39105;BME280;46464;51.154;13.812;2022-07-23T03:45:45;99253.28;;;17.07;90.78
39105;BME280;46464;51.154;13.812;2022-07-23T03:48:12;99256.50;;;17.12;90.58
39105;BME280;46464;51.154;13.812;2022-07-23T03:50:38;99263.44;;;17.16;90.24
39105;BME280;46464;51.154;13.812;2022-07-23T03:53:05;99261.22;;;17.21;90.43
39105;BME280;46464;51.154;13.812;2022-07-23T03:55:31;99269.31;;;17.34;91.24
39105;BME280;46464;51.154;13.812;2022-07-23T03:57:58;99263.00;;;17.34;91.09
39105;BME280;46464;51.154;13.812;2022-07-23T04:00:24;99253.75;;;17.36;91.11
39105;BME280;46464;51.154;13.812;2022-07-23T04:02:51;99254.38;;;17.40;90.99
39105;BME280;46464;51.154;13.812;2022-07-23T04:05:17;99252.28;;;17.43;90.91
39105;BME280;46464;51.154;13.812;2022-07-23T04:07:44;99256.59;;;17.46;90.61
39105;BME280;46464;51.154;13.812;2022-07-23T04:10:10;99253.19;;;17.55;91.30
39105;BME280;46464;51.154;13.812;2022-07-23T04:12:37;99263.16;;;17.55;91.61
39105;BME280;46464;51.154;13.812;2022-07-23T04:15:04;99269.34;;;17.57;91.68
39105;BME280;46464;51.154;13.812;2022-07-23T04:17:30;99272.06;;;17.57;91.98
39105;BME280;46464;51.154;13.812;2022-07-23T04:19:57;99264.69;;;17.59;91.76
39105;BME280;46464;51.154;13.812;2022-07-23T04:22:23;99272.56;;;17.62;91.70
39105;BME280;46464;51.154;13.812;2022-07-23T04:24:50;99280.66;;;17.75;92.31
39105;BME280;46464;51.154;13.812;2022-07-23T04:27:17;99277.94;;;17.75;91.98
39105;BME280;46464;51.154;13.812;2022-07-23T04:29:43;99276.06;;;17.75;92.15
39105;BME280;46464;51.154;13.812;2022-07-23T04:32:10;99265.19;;;17.75;92.15
39105;BME280;46464;51.154;13.812;2022-07-23T04:34:36;99263.31;;;17.76;92.46
39105;BME280;46464;51.154;13.812;2022-07-23T04:37:02;99267.28;;;17.83;92.08
39105;BME280;46464;51.154;13.812;2022-07-23T04:39:29;99259.53;;;17.90;91.80
39105;BME280;46464;51.154;13.812;2022-07-23T04:41:56;99266.97;;;17.99;91.80
39105;BME280;46464;51.154;13.812;2022-07-23T04:44:22;99281.44;;;18.11;91.34
39105;BME280;46464;51.154;13.812;2022-07-23T04:46:48;99279.34;;;18.15;90.79
39105;BME280;46464;51.154;13.812;2022-07-23T04:49:16;99275.63;;;18.16;90.86
39105;BME280;46464;51.154;13.812;2022-07-23T04:51:44;99270.69;;;18.10;90.33
39105;BME280;46464;51.154;13.812;2022-07-23T04:54:11;99266.84;;;18.01;90.82
39105;BME280;46464;51.154;13.812;2022-07-23T04:56:37;99256.72;;;18.03;90.68
39105;BME280;46464;51.154;13.812;2022-07-23T04:59:03;99260.69;;;17.99;90.62
39105;BME280;46464;51.154;13.812;2022-07-23T05:01:31;99262.91;;;18.05;90.37
39105;BME280;46464;51.154;13.812;2022-07-23T05:03:57;99255.38;;;18.09;90.26
39105;BME280;46464;51.154;13.812;2022-07-23T05:06:24;99249.53;;;18.13;90.07
39105;BME280;46464;51.154;13.812;2022-07-23T05:08:50;99250.28;;;18.15;90.32
39105;BME280;46464;51.154;13.812;2022-07-23T05:11:17;99251.91;;;18.18;90.01
39105;BME280;46464;51.154;13.812;2022-07-23T05:13:47;99253.38;;;18.22;89.84
39105;BME280;46464;51.154;13.812;2022-07-23T05:16:13;99261.53;;;18.22;89.57
39105;BME280;46464;51.154;13.812;2022-07-23T05:18:40;99268.09;;;18.31;89.22
39105;BME280;46464;51.154;13.812;2022-07-23T05:21:07;99261.66;;;18.43;88.47
39105;BME280;46464;51.154;13.812;2022-07-23T05:23:33;99263.97;;;18.48;88.35
39105;BME280;46464;51.154;13.812;2022-07-23T05:26:00;99277.47;;;18.49;88.35
39105;BME280;46464;51.154;13.812;2022-07-23T05:28:26;99280.03;;;18.62;88.08
39105;BME280;46464;51.154;13.812;2022-07-23T05:30:53;99285.47;;;18.74;87.71
39105;BME280;46464;51.154;13.812;2022-07-23T05:33:19;99287.53;;;18.81;86.88
39105;BME280;46464;51.154;13.812;2022-07-23T05:35:46;99283.81;;;18.94;87.02
39105;BME280;46464;51.154;13.812;2022-07-23T05:38:14;99275.63;;;19.05;86.16
39105;BME280;46464;51.154;13.812;2022-07-23T05:40:41;99279.56;;;19.12;85.69
39105;BME280;46464;51.154;13.812;2022-07-23T05:43:07;99283.34;;;19.21;85.01
39105;BME280;46464;51.154;13.812;2022-07-23T05:45:34;99291.28;;;19.24;84.23
39105;BME280;46464;51.154;13.812;2022-07-23T05:48:00;99302.66;;;19.29;84.50
39105;BME280;46464;51.154;13.812;2022-07-23T05:50:27;99308.56;;;19.34;84.16
39105;BME280;46464;51.154;13.812;2022-07-23T05:52:53;99347.69;;;19.33;84.43
39105;BME280;46464;51.154;13.812;2022-07-23T05:55:20;99358.16;;;19.17;85.02
39105;BME280;46464;51.154;13.812;2022-07-23T05:57:46;99352.47;;;19.09;85.64
39105;BME280;46464;51.154;13.812;2022-07-23T06:00:13;99345.31;;;19.08;85.79
39105;BME280;46464;51.154;13.812;2022-07-23T06:02:39;99336.41;;;19.06;86.46
39105;BME280;46464;51.154;13.812;2022-07-23T06:05:06;99337.28;;;18.95;86.04
39105;BME280;46464;51.154;13.812;2022-07-23T06:07:34;99342.38;;;18.77;87.15
39105;BME280;46464;51.154;13.812;2022-07-23T06:10:00;99368.06;;;18.84;86.78
39105;BME280;46464;51.154;13.812;2022-07-23T06:12:27;99370.41;;;18.88;86.29
39105;BME280;46464;51.154;13.812;2022-07-23T06:14:53;99378.47;;;18.79;86.44
39105;BME280;46464;51.154;13.812;2022-07-23T06:17:20;99374.66;;;18.59;87.06
39105;BME280;46464;51.154;13.812;2022-07-23T06:19:47;99374.28;;;18.52;87.45
39105;BME280;46464;51.154;13.812;2022-07-23T06:22:14;99373.78;;;18.47;87.87
39105;BME280;46464;51.154;13.812;2022-07-23T06:24:40;99386.28;;;18.49;87.92
39105;BME280;46464;51.154;13.812;2022-07-23T06:27:06;99386.38;;;18.48;88.45
39105;BME280;46464;51.154;13.812;2022-07-23T06:29:33;99390.00;;;18.48;88.19
39105;BME280;46464;51.154;13.812;2022-07-23T06:31:59;99402.00;;;18.46;88.04
39105;BME280;46464;51.154;13.812;2022-07-23T06:34:26;99403.59;;;18.48;88.29
39105;BME280;46464;51.154;13.812;2022-07-23T06:36:52;99407.16;;;18.49;88.26
39105;BME280;46464;51.154;13.812;2022-07-23T06:39:19;99405.06;;;18.41;88.32
39105;BME280;46464;51.154;13.812;2022-07-23T06:41:45;99418.41;;;18.44;88.22
39105;BME280;46464;51.154;13.812;2022-07-23T06:44:16;99402.84;;;18.46;88.18
39105;BME280;46464;51.154;13.812;2022-07-23T06:46:43;99398.53;;;18.55;87.48
39105;BME280;46464;51.154;13.812;2022-07-23T06:49:09;99403.59;;;18.60;87.59
39105;BME280;46464;51.154;13.812;2022-07-23T06:51:36;99401.00;;;18.69;86.96
39105;BME280;46464;51.154;13.812;2022-07-23T06:54:03;99392.34;;;18.76;87.14
39105;BME280;46464;51.154;13.812;2022-07-23T06:56:29;99408.28;;;18.80;85.44
39105;BME280;46464;51.154;13.812;2022-07-23T06:58:56;99397.03;;;18.96;84.92
39105;BME280;46464;51.154;13.812;2022-07-23T07:01:22;99396.13;;;19.18;83.58
39105;BME280;46464;51.154;13.812;2022-07-23T07:03:49;99396.66;;;19.45;81.25
39105;BME280;46464;51.154;13.812;2022-07-23T07:06:16;99398.38;;;19.57;80.18
39105;BME280;46464;51.154;13.812;2022-07-23T07:08:42;99365.94;;;19.54;79.95
39105;BME280;46464;51.154;13.812;2022-07-23T07:11:10;99377.97;;;19.51;79.82
39105;BME280;46464;51.154;13.812;2022-07-23T07:13:37;99385.19;;;19.41;79.62
39105;BME280;46464;51.154;13.812;2022-07-23T07:16:04;99372.28;;;19.76;78.55
39105;BME280;46464;51.154;13.812;2022-07-23T07:18:31;99358.66;;;20.39;77.94
39105;BME280;46464;51.154;13.812;2022-07-23T07:20:57;99361.22;;;21.03;73.57
39105;BME280;46464;51.154;13.812;2022-07-23T07:23:24;99357.81;;;21.40;72.44
39105;BME280;46464;51.154;13.812;2022-07-23T07:25:50;99366.06;;;21.59;71.36
39105;BME280;46464;51.154;13.812;2022-07-23T07:28:17;99367.78;;;21.80;69.93
39105;BME280;46464;51.154;13.812;2022-07-23T07:30:43;99367.03;;;21.88;68.78
39105;BME280;46464;51.154;13.812;2022-07-23T07:33:10;99360.34;;;22.20;68.97
39105;BME280;46464;51.154;13.812;2022-07-23T07:35:36;99370.88;;;22.24;67.89
39105;BME280;46464;51.154;13.812;2022-07-23T07:38:03;99380.25;;;22.12;67.98
39105;BME280;46464;51.154;13.812;2022-07-23T07:40:29;99376.81;;;22.00;68.94
39105;BME280;46464;51.154;13.812;2022-07-23T07:43:00;99377.97;;;21.88;68.12
39105;BME280;46464;51.154;13.812;2022-07-23T07:45:27;99375.97;;;21.90;68.18
39105;BME280;46464;51.154;13.812;2022-07-23T07:47:54;99369.75;;;21.98;68.14
39105;BME280;46464;51.154;13.812;2022-07-23T07:50:21;99372.44;;;22.27;68.42
39105;BME280;46464;51.154;13.812;2022-07-23T07:52:49;99391.63;;;22.17;66.42
39105;BME280;46464;51.154;13.812;2022-07-23T07:55:15;99374.06;;;22.10;66.70
39105;BME280;46464;51.154;13.812;2022-07-23T07:57:43;99374.47;;;22.25;67.04
39105;BME280;46464;51.154;13.812;2022-07-23T08:00:15;99384.88;;;22.97;65.69
39105;BME280;46464;51.154;13.812;2022-07-23T08:02:49;99386.25;;;23.11;65.13
39105;BME280;46464;51.154;13.812;2022-07-23T08:05:21;99366.66;;;23.05;64.00
39105;BME280;46464;51.154;13.812;2022-07-23T08:07:53;99349.88;;;22.91;63.46
39105;BME280;46464;51.154;13.812;2022-07-23T08:10:20;99353.06;;;22.86;64.43
39105;BME280;46464;51.154;13.812;2022-07-23T08:12:48;99354.16;;;22.75;65.06
39105;BME280;46464;51.154;13.812;2022-07-23T08:15:18;99356.56;;;22.78;64.05
39105;BME280;46464;51.154;13.812;2022-07-23T08:17:46;99356.81;;;22.57;64.83
39105;BME280;46464;51.154;13.812;2022-07-23T08:20:15;99356.66;;;22.59;65.16
39105;BME280;46464;51.154;13.812;2022-07-23T08:22:46;99353.31;;;22.65;65.67
39105;BME280;46464;51.154;13.812;2022-07-23T08:25:16;99355.88;;;22.76;65.46
39105;BME280;46464;51.154;13.812;2022-07-23T08:27:42;99337.19;;;22.89;65.25
39105;BME280;46464;51.154;13.812;2022-07-23T08:30:09;99341.72;;;23.09;64.40
39105;BME280;46464;51.154;13.812;2022-07-23T08:32:54;99350.16;;;23.15;64.16
39105;BME280;46464;51.154;13.812;2022-07-23T08:35:25;99349.91;;;23.18;63.66
39105;BME280;46464;51.154;13.812;2022-07-23T08:37:53;99350.13;;;23.25;63.20
39105;BME280;46464;51.154;13.812;2022-07-23T08:40:20;99351.69;;;23.28;63.05
39105;BME280;46464;51.154;13.812;2022-07-23T08:42:49;99352.69;;;23.09;63.42
39105;BME280;46464;51.154;13.812;2022-07-23T08:45:19;99346.06;;;23.01;63.83
39105;BME280;46464;51.154;13.812;2022-07-23T08:47:49;99344.97;;;22.94;63.44
39105;BME280;46464;51.154;13.812;2022-07-23T08:50:19;99354.81;;;22.87;64.53
39105;BME280;46464;51.154;13.812;2022-07-23T08:52:48;99356.25;;;22.91;64.60
39105;BME280;46464;51.154;13.812;2022-07-23T08:55:16;99352.16;;;22.95;65.46
39105;BME280;46464;51.154;13.812;2022-07-23T08:57:43;99347.88;;;23.11;66.37
39105;BME280;46464;51.154;13.812;2022-07-23T09:00:10;99349.69;;;23.30;64.81
39105;BME280;46464;51.154;13.812;2022-07-23T09:02:39;99356.94;;;23.39;62.99
39105;BME280;46464;51.154;13.812;2022-07-23T09:05:07;99363.09;;;23.51;63.02
39105;BME280;46464;51.154;13.812;2022-07-23T09:07:35;99362.28;;;23.59;62.79
39105;BME280;46464;51.154;13.812;2022-07-23T09:10:07;99371.16;;;23.71;61.96
39105;BME280;46464;51.154;13.812;2022-07-23T09:12:34;99371.91;;;23.81;61.38
39105;BME280;46464;51.154;13.812;2022-07-23T09:15:04;99363.72;;;23.99;61.38
39105;BME280;46464;51.154;13.812;2022-07-23T09:17:38;99371.44;;;24.04;61.13
39105;BME280;46464;51.154;13.812;2022-07-23T09:20:10;99375.59;;;24.08;61.06
39105;BME280;46464;51.154;13.812;2022-07-23T09:22:45;99383.59;;;24.01;61.10
39105;BME280;46464;51.154;13.812;2022-07-23T09:25:18;99375.88;;;24.23;60.76
39105;BME280;46464;51.154;13.812;2022-07-23T09:27:50;99382.47;;;24.64;60.45
39105;BME280;46464;51.154;13.812;2022-07-23T09:30:22;99378.31;;;24.78;58.77
39105;BME280;46464;51.154;13.812;2022-07-23T09:33:09;99377.94;;;25.16;59.87
39105;BME280;46464;51.154;13.812;2022-07-23T09:35:54;99374.06;;;25.43;56.88
39105;BME280;46464;51.154;13.812;2022-07-23T09:38:24;99366.38;;;25.55;58.74
39105;BME280;46464;51.154;13.812;2022-07-23T09:41:07;99362.41;;;25.50;56.15
39105;BME280;46464;51.154;13.812;2022-07-23T09:43:34;99365.66;;;25.37;56.00
39105;BME280;46464;51.154;13.812;2022-07-23T09:46:24;99380.00;;;25.22;56.30
39105;BME280;46464;51.154;13.812;2022-07-23T09:48:52;99384.75;;;25.04;56.51
39105;BME280;46464;51.154;13.812;2022-07-23T09:51:20;99385.00;;;24.84;56.60
39105;BME280;46464;51.154;13.812;2022-07-23T09:54:02;99391.38;;;24.85;57.85
39105;BME280;46464;51.154;13.812;2022-07-23T09:56:30;99397.19;;;24.81;57.84
39105;BME280;46464;51.154;13.812;2022-07-23T09:58:57;99402.22;;;24.86;57.36
39105;BME280;46464;51.154;13.812;2022-07-23T10:01:43;99397.56;;;24.87;56.47
39105;BME280;46464;51.154;13.812;2022-07-23T10:04:11;99395.72;;;24.95;57.43
39105;BME280;46464;51.154;13.812;2022-07-23T10:06:39;99401.25;;;25.04;56.99
39105;BME280;46464;51.154;13.812;2022-07-23T10:09:08;99399.41;;;24.78;56.61
39105;BME280;46464;51.154;13.812;2022-07-23T10:11:35;99393.91;;;24.78;57.41
39105;BME280;46464;51.154;13.812;2022-07-23T10:14:02;99400.16;;;24.88;57.16
39105;BME280;46464;51.154;13.812;2022-07-23T10:16:31;99406.16;;;24.92;57.56
39105;BME280;46464;51.154;13.812;2022-07-23T10:18:58;99407.22;;;24.91;56.93
39105;BME280;46464;51.154;13.812;2022-07-23T10:21:34;99404.47;;;24.91;56.74
39105;BME280;46464;51.154;13.812;2022-07-23T10:24:46;99412.38;;;24.94;56.55
39105;BME280;46464;51.154;13.812;2022-07-23T10:27:37;99420.50;;;25.04;56.11
39105;BME280;46464;51.154;13.812;2022-07-23T10:36:07;99423.22;;;25.04;56.54
39105;BME280;46464;51.154;13.812;2022-07-23T10:38:51;99422.00;;;24.98;56.00
39105;BME280;46464;51.154;13.812;2022-07-23T10:41:33;99427.25;;;25.18;55.78
39105;BME280;46464;51.154;13.812;2022-07-23T10:44:14;99430.47;;;25.48;55.08
39105;BME280;46464;51.154;13.812;2022-07-23T10:47:01;99422.97;;;25.91;55.04
39105;BME280;46464;51.154;13.812;2022-07-23T10:58:00;99432.94;;;25.92;53.84
39105;BME280;46464;51.154;13.812;2022-07-23T11:00:28;99435.88;;;25.82;53.51
39105;BME280;46464;51.154;13.812;2022-07-23T11:02:58;99444.94;;;25.66;54.74
39105;BME280;46464;51.154;13.812;2022-07-23T11:05:38;99447.84;;;25.56;55.21
39105;BME280;46464;51.154;13.812;2022-07-23T11:10:38;99442.91;;;25.25;56.18
39105;BME280;46464;51.154;13.812;2022-07-23T11:24:11;99446.22;;;24.68;58.26
39105;BME280;46464;51.154;13.812;2022-07-23T11:26:44;99441.72;;;24.41;59.22
39105;BME280;46464;51.154;13.812;2022-07-23T11:31:58;99451.78;;;24.58;59.36
39105;BME280;46464;51.154;13.812;2022-07-23T11:34:42;99464.88;;;24.38;59.68
39105;BME280;46464;51.154;13.812;2022-07-23T11:37:10;99459.25;;;24.22;59.39
39105;BME280;46464;51.154;13.812;2022-07-23T11:39:38;99450.63;;;23.98;60.58
39105;BME280;46464;51.154;13.812;2022-07-23T11:42:07;99456.47;;;23.95;60.82
39105;BME280;46464;51.154;13.812;2022-07-23T11:44:38;99459.19;;;23.95;61.11
39105;BME280;46464;51.154;13.812;2022-07-23T11:47:07;99470.81;;;23.61;61.99
39105;BME280;46464;51.154;13.812;2022-07-23T11:49:34;99478.25;;;23.51;62.17
39105;BME280;46464;51.154;13.812;2022-07-23T11:54:35;99467.88;;;23.45;62.70
39105;BME280;46464;51.154;13.812;2022-07-23T11:57:05;99458.75;;;23.26;63.50
39105;BME280;46464;51.154;13.812;2022-07-23T11:59:32;99453.16;;;23.18;64.21
39105;BME280;46464;51.154;13.812;2022-07-23T12:02:02;99462.28;;;23.09;64.58
39105;BME280;46464;51.154;13.812;2022-07-23T12:04:46;99464.84;;;23.10;64.89
39105;BME280;46464;51.154;13.812;2022-07-23T12:07:32;99461.75;;;22.95;65.09
39105;BME280;46464;51.154;13.812;2022-07-23T12:10:03;99477.66;;;22.82;65.98
39105;BME280;46464;51.154;13.812;2022-07-23T12:15:19;99479.75;;;22.60;66.80
39105;BME280;46464;51.154;13.812;2022-07-23T12:17:48;99480.59;;;22.51;67.43
39105;BME280;46464;51.154;13.812;2022-07-23T12:20:21;99483.78;;;22.46;67.74
39105;BME280;46464;51.154;13.812;2022-07-23T12:22:51;99480.34;;;22.54;68.12
39105;BME280;46464;51.154;13.812;2022-07-23T12:25:23;99471.38;;;22.52;67.64
39105;BME280;46464;51.154;13.812;2022-07-23T12:28:02;99472.69;;;22.58;67.08
39105;BME280;46464;51.154;13.812;2022-07-23T12:30:37;99479.88;;;22.59;67.88
39105;BME280;46464;51.154;13.812;2022-07-23T12:33:06;99484.34;;;22.50;67.87
39105;BME280;46464;51.154;13.812;2022-07-23T12:35:46;99482.94;;;22.46;67.73
39105;BME280;46464;51.154;13.812;2022-07-23T12:38:15;99469.81;;;22.39;68.22
39105;BME280;46464;51.154;13.812;2022-07-23T12:40:46;99472.78;;;22.66;67.29
39105;BME280;46464;51.154;13.812;2022-07-23T12:46:07;99479.34;;;22.93;66.34
39105;BME280;46464;51.154;13.812;2022-07-23T12:49:27;99487.78;;;23.09;66.04
39105;BME280;46464;51.154;13.812;2022-07-23T12:51:56;99482.75;;;23.42;65.76
39105;BME280;46464;51.154;13.812;2022-07-23T12:54:27;99472.31;;;23.56;64.78
39105;BME280;46464;51.154;13.812;2022-07-23T12:56:54;99467.09;;;23.80;63.79
39105;BME280;46464;51.154;13.812;2022-07-23T12:59:21;99470.06;;;23.87;63.32
39105;BME280;46464;51.154;13.812;2022-07-23T13:01:55;99462.78;;;23.96;62.87
39105;BME280;46464;51.154;13.812;2022-07-23T13:04:25;99474.47;;;24.16;62.85
39105;BME280;46464;51.154;13.812;2022-07-23T13:06:57;99475.25;;;24.08;63.03
39105;BME280;46464;51.154;13.812;2022-07-23T13:09:27;99476.81;;;24.11;62.00
39105;BME280;46464;51.154;13.812;2022-07-23T13:11:58;99474.16;;;24.19;62.44
39105;BME280;46464;51.154;13.812;2022-07-23T13:14:26;99477.13;;;24.26;62.07
39105;BME280;46464;51.154;13.812;2022-07-23T13:16:54;99475.47;;;24.33;62.47
39105;BME280;46464;51.154;13.812;2022-07-23T13:19:22;99473.56;;;24.33;62.15
39105;BME280;46464;51.154;13.812;2022-07-23T13:22:09;99465.03;;;24.37;62.58
39105;BME280;46464;51.154;13.812;2022-07-23T13:24:36;99476.56;;;24.40;61.95
39105;BME280;46464;51.154;13.812;2022-07-23T13:27:05;99471.97;;;24.23;62.46
39105;BME280;46464;51.154;13.812;2022-07-23T13:29:33;99473.19;;;24.28;62.35
39105;BME280;46464;51.154;13.812;2022-07-23T13:32:02;99478.00;;;24.08;62.74
39105;BME280;46464;51.154;13.812;2022-07-23T13:34:36;99479.72;;;24.09;62.15
39105;BME280;46464;51.154;13.812;2022-07-23T13:37:06;99478.47;;;24.04;62.54